sensor_id;sensor_type;location;lat;lon;timestamp;P1;durP1;ratioP1;P2;durP2;ratioP2
59974;SDS011;62136;-35.664;-63.766;2022-10-23T00:01:17;1.58;;;0.90;;
59974;SDS011;62136;-35.664;-63.766;2022-10-23T00:03:53;1.02;;;0.90;;
59974;SDS011;62136;-35.664;-63.766;2022-10-23T00:06:26;1.63;;;0.90;;
59974;SDS011;62136;-35.664;-63.766;2022-10-23T00:08:55;1.10;;;0.88;;
59974;SDS011;62136;-35.664;-63.766;2022-10-23T00:11:23;2.15;;;1.10;;
59974;SDS011;62136;-35.664;-63.766;2022-10-23T00:13:53;2.42;;;1.00;;
59974;SDS011;62136;-35.664;-63.766;2022-10-23T00:16:21;3.08;;;1.23;;
59974;SDS011;62136;-35.664;-63.766;2022-10-23T00:18:48;1.52;;;0.85;;
59974;SDS011;62136;-35.664;-63.766;2022-10-23T00:21:16;2.05;;;1.10;;
59974;SDS011;62136;-35.664;-63.766;2022-10-23T00:23:43;2.65;;;1.60;;
59974;SDS011;62136;-35.664;-63.766;2022-10-23T00:26:11;1.80;;;1.20;;
59974;SDS011;62136;-35.664;-63.766;2022-10-23T00:28:46;1.63;;;0.93;;
59974;SDS011;62136;-35.664;-63.766;2022-10-23T00:31:18;1.40;;;0.70;;
59974;SDS011;62136;-35.664;-63.766;2022-10-23T00:33:47;2.05;;;1.00;;
59974;SDS011;62136;-35.664;-63.766;2022-10-23T00:36:15;3.60;;;1.10;;
59974;SDS011;62136;-35.664;-63.766;2022-10-23T00:38:43;1.45;;;0.90;;
59974;SDS011;62136;-35.664;-63.766;2022-10-23T00:41:31;3.30;;;1.00;;
59974;SDS011;62136;-35.664;-63.766;2022-10-23T00:46:37;1.58;;;0.90;;
59974;SDS011;62136;-35.664;-63.766;2022-10-23T00:49:05;1.65;;;1.10;;
59974;SDS011;62136;-35.664;-63.766;2022-10-23T00:51:35;2.85;;;1.23;;
59974;SDS011;62136;-35.664;-63.766;2022-10-23T00:54:09;2.33;;;1.13;;
59974;SDS011;62136;-35.664;-63.766;2022-10-23T00:56:39;2.38;;;1.27;;
59974;SDS011;62136;-35.664;-63.766;2022-10-23T00:59:09;1.65;;;1.15;;
59974;SDS011;62136;-35.664;-63.766;2022-10-23T01:01:36;1.65;;;1.13;;
59974;SDS011;62136;-35.664;-63.766;2022-10-23T01:04:03;2.00;;;1.17;;
59974;SDS011;62136;-35.664;-63.766;2022-10-23T01:12:25;2.88;;;1.33;;
59974;SDS011;62136;-35.664;-63.766;2022-10-23T01:15:00;1.83;;;1.30;;
59974;SDS011;62136;-35.664;-63.766;2022-10-23T01:26:43;1.42;;;1.15;;
59974;SDS011;62136;-35.664;-63.766;2022-10-23T01:29:24;4.63;;;1.42;;
59974;SDS011;62136;-35.664;-63.766;2022-10-23T01:32:11;2.13;;;1.10;;
59974;SDS011;62136;-35.664;-63.766;2022-10-23T01:35:06;2.55;;;1.20;;
59974;SDS011;62136;-35.664;-63.766;2022-10-23T01:37:54;2.88;;;1.30;;
59974;SDS011;62136;-35.664;-63.766;2022-10-23T01:40:26;2.35;;;1.23;;
59974;SDS011;62136;-35.664;-63.766;2022-10-23T01:42:59;3.38;;;1.60;;
59974;SDS011;62136;-35.664;-63.766;2022-10-23T01:45:36;2.65;;;1.40;;
59974;SDS011;62136;-35.664;-63.766;2022-10-23T01:48:07;2.47;;;1.27;;
59974;SDS011;62136;-35.664;-63.766;2022-10-23T01:50:39;4.03;;;1.65;;
59974;SDS011;62136;-35.664;-63.766;2022-10-23T01:53:07;2.05;;;1.33;;
59974;SDS011;62136;-35.664;-63.766;2022-10-23T01:55:35;3.75;;;1.50;;
59974;SDS011;62136;-35.664;-63.766;2022-10-23T01:58:04;1.45;;;1.27;;
59974;SDS011;62136;-35.664;-63.766;2022-10-23T02:00:33;1.63;;;1.27;;
59974;SDS011;62136;-35.664;-63.766;2022-10-23T02:03:04;2.15;;;1.75;;
59974;SDS011;62136;-35.664;-63.766;2022-10-23T02:05:33;2.17;;;1.23;;
59974;SDS011;62136;-35.664;-63.766;2022-10-23T02:08:01;2.65;;;1.50;;
59974;SDS011;62136;-35.664;-63.766;2022-10-23T02:13:29;1.80;;;1.40;;
59974;SDS011;62136;-35.664;-63.766;2022-10-23T02:16:23;2.55;;;1.35;;
59974;SDS011;62136;-35.664;-63.766;2022-10-23T02:19:15;1.77;;;1.10;;
59974;SDS011;62136;-35.664;-63.766;2022-10-23T02:24:26;3.13;;;1.55;;
59974;SDS011;62136;-35.664;-63.766;2022-10-23T02:27:34;1.92;;;1.40;;
59974;SDS011;62136;-35.664;-63.766;2022-10-23T02:30:21;3.95;;;1.60;;
59974;SDS011;62136;-35.664;-63.766;2022-10-23T02:32:49;2.88;;;1.70;;
59974;SDS011;62136;-35.664;-63.766;2022-10-23T02:35:20;3.67;;;1.50;;
59974;SDS011;62136;-35.664;-63.766;2022-10-23T02:37:58;3.15;;;1.60;;
59974;SDS011;62136;-35.664;-63.766;2022-10-23T02:40:29;2.53;;;1.63;;
59974;SDS011;62136;-35.664;-63.766;2022-10-23T02:43:06;3.25;;;1.63;;
59974;SDS011;62136;-35.664;-63.766;2022-10-23T02:48:28;2.90;;;1.58;;
59974;SDS011;62136;-35.664;-63.766;2022-10-23T02:51:09;2.25;;;1.55;;
59974;SDS011;62136;-35.664;-63.766;2022-10-23T02:59:44;2.35;;;1.38;;
59974;SDS011;62136;-35.664;-63.766;2022-10-23T03:02:22;4.45;;;1.92;;
59974;SDS011;62136;-35.664;-63.766;2022-10-23T03:05:11;3.00;;;1.52;;
59974;SDS011;62136;-35.664;-63.766;2022-10-23T03:07:51;3.58;;;2.10;;
59974;SDS011;62136;-35.664;-63.766;2022-10-23T03:10:18;3.28;;;1.80;;
59974;SDS011;62136;-35.664;-63.766;2022-10-23T03:12:45;4.28;;;1.80;;
59974;SDS011;62136;-35.664;-63.766;2022-10-23T03:15:13;2.85;;;1.45;;
59974;SDS011;62136;-35.664;-63.766;2022-10-23T03:17:41;3.13;;;1.80;;
59974;SDS011;62136;-35.664;-63.766;2022-10-23T03:20:09;3.75;;;1.48;;
59974;SDS011;62136;-35.664;-63.766;2022-10-23T03:22:36;3.90;;;1.80;;
59974;SDS011;62136;-35.664;-63.766;2022-10-23T03:25:04;2.38;;;1.42;;
59974;SDS011;62136;-35.664;-63.766;2022-10-23T03:27:32;3.03;;;1.58;;
59974;SDS011;62136;-35.664;-63.766;2022-10-23T03:29:59;2.25;;;1.20;;
59974;SDS011;62136;-35.664;-63.766;2022-10-23T03:32:26;4.30;;;1.50;;
59974;SDS011;62136;-35.664;-63.766;2022-10-23T03:34:53;2.92;;;1.50;;
59974;SDS011;62136;-35.664;-63.766;2022-10-23T03:37:21;2.70;;;1.40;;
59974;SDS011;62136;-35.664;-63.766;2022-10-23T03:39:48;3.47;;;1.77;;
59974;SDS011;62136;-35.664;-63.766;2022-10-23T03:42:15;3.40;;;1.77;;
59974;SDS011;62136;-35.664;-63.766;2022-10-23T03:44:42;2.58;;;1.27;;
59974;SDS011;62136;-35.664;-63.766;2022-10-23T03:47:09;3.53;;;1.60;;
59974;SDS011;62136;-35.664;-63.766;2022-10-23T03:49:37;2.75;;;1.58;;
59974;SDS011;62136;-35.664;-63.766;2022-10-23T03:52:13;2.58;;;1.30;;
59974;SDS011;62136;-35.664;-63.766;2022-10-23T03:54:52;2.38;;;1.45;;
59974;SDS011;62136;-35.664;-63.766;2022-10-23T03:57:25;3.15;;;1.30;;
59974;SDS011;62136;-35.664;-63.766;2022-10-23T03:59:52;1.63;;;1.30;;
59974;SDS011;62136;-35.664;-63.766;2022-10-23T04:02:19;1.75;;;1.10;;
59974;SDS011;62136;-35.664;-63.766;2022-10-23T04:04:46;4.25;;;1.40;;
59974;SDS011;62136;-35.664;-63.766;2022-10-23T04:07:13;3.13;;;1.58;;
59974;SDS011;62136;-35.664;-63.766;2022-10-23T04:09:40;2.75;;;1.20;;
59974;SDS011;62136;-35.664;-63.766;2022-10-23T04:12:07;1.88;;;1.38;;
59974;SDS011;62136;-35.664;-63.766;2022-10-23T04:14:34;2.80;;;1.33;;
59974;SDS011;62136;-35.664;-63.766;2022-10-23T04:17:01;2.92;;;1.58;;
59974;SDS011;62136;-35.664;-63.766;2022-10-23T04:19:28;2.20;;;1.33;;
59974;SDS011;62136;-35.664;-63.766;2022-10-23T04:21:56;3.53;;;1.20;;
59974;SDS011;62136;-35.664;-63.766;2022-10-23T04:24:23;2.78;;;1.50;;
59974;SDS011;62136;-35.664;-63.766;2022-10-23T04:26:50;2.22;;;1.38;;
59974;SDS011;62136;-35.664;-63.766;2022-10-23T04:29:21;2.63;;;1.35;;
59974;SDS011;62136;-35.664;-63.766;2022-10-23T04:31:49;3.92;;;1.60;;
59974;SDS011;62136;-35.664;-63.766;2022-10-23T04:34:17;2.92;;;1.15;;
59974;SDS011;62136;-35.664;-63.766;2022-10-23T04:36:44;1.80;;;1.10;;
59974;SDS011;62136;-35.664;-63.766;2022-10-23T04:39:11;2.85;;;1.35;;
59974;SDS011;62136;-35.664;-63.766;2022-10-23T04:41:41;2.05;;;0.95;;
59974;SDS011;62136;-35.664;-63.766;2022-10-23T04:44:08;1.98;;;1.30;;
59974;SDS011;62136;-35.664;-63.766;2022-10-23T04:46:35;1.83;;;1.10;;
59974;SDS011;62136;-35.664;-63.766;2022-10-23T04:49:02;3.58;;;1.55;;
59974;SDS011;62136;-35.664;-63.766;2022-10-23T04:51:29;3.65;;;1.40;;
59974;SDS011;62136;-35.664;-63.766;2022-10-23T04:53:56;3.38;;;1.20;;
59974;SDS011;62136;-35.664;-63.766;2022-10-23T04:56:23;3.15;;;1.23;;
59974;SDS011;62136;-35.664;-63.766;2022-10-23T04:58:50;1.55;;;1.10;;
59974;SDS011;62136;-35.664;-63.766;2022-10-23T05:01:17;3.22;;;1.17;;
59974;SDS011;62136;-35.664;-63.766;2022-10-23T05:03:44;1.95;;;1.00;;
59974;SDS011;62136;-35.664;-63.766;2022-10-23T05:06:11;2.03;;;0.90;;
59974;SDS011;62136;-35.664;-63.766;2022-10-23T05:08:38;2.40;;;1.08;;
59974;SDS011;62136;-35.664;-63.766;2022-10-23T05:11:05;2.40;;;1.50;;
59974;SDS011;62136;-35.664;-63.766;2022-10-23T05:13:35;2.33;;;1.00;;
59974;SDS011;62136;-35.664;-63.766;2022-10-23T05:16:03;1.17;;;0.93;;
59974;SDS011;62136;-35.664;-63.766;2022-10-23T05:18:48;1.52;;;0.90;;
59974;SDS011;62136;-35.664;-63.766;2022-10-23T05:21:17;1.20;;;1.10;;
59974;SDS011;62136;-35.664;-63.766;2022-10-23T05:23:47;2.85;;;1.45;;
59974;SDS011;62136;-35.664;-63.766;2022-10-23T05:26:15;2.15;;;1.20;;
59974;SDS011;62136;-35.664;-63.766;2022-10-23T05:28:42;1.55;;;0.95;;
59974;SDS011;62136;-35.664;-63.766;2022-10-23T05:31:09;3.13;;;0.95;;
59974;SDS011;62136;-35.664;-63.766;2022-10-23T05:33:37;3.20;;;1.27;;
59974;SDS011;62136;-35.664;-63.766;2022-10-23T05:36:06;2.47;;;1.30;;
59974;SDS011;62136;-35.664;-63.766;2022-10-23T05:38:33;1.80;;;0.95;;
59974;SDS011;62136;-35.664;-63.766;2022-10-23T05:41:01;3.17;;;1.33;;
59974;SDS011;62136;-35.664;-63.766;2022-10-23T05:43:28;1.90;;;1.00;;
59974;SDS011;62136;-35.664;-63.766;2022-10-23T05:45:56;1.70;;;0.73;;
59974;SDS011;62136;-35.664;-63.766;2022-10-23T05:48:26;2.17;;;1.02;;
59974;SDS011;62136;-35.664;-63.766;2022-10-23T05:50:53;2.92;;;1.00;;
59974;SDS011;62136;-35.664;-63.766;2022-10-23T05:53:30;1.67;;;0.88;;
59974;SDS011;62136;-35.664;-63.766;2022-10-23T05:56:02;2.38;;;0.90;;
59974;SDS011;62136;-35.664;-63.766;2022-10-23T05:58:30;2.42;;;1.13;;
59974;SDS011;62136;-35.664;-63.766;2022-10-23T06:00:57;2.60;;;0.90;;
59974;SDS011;62136;-35.664;-63.766;2022-10-23T06:03:24;2.22;;;1.15;;
59974;SDS011;62136;-35.664;-63.766;2022-10-23T06:05:51;2.22;;;1.10;;
59974;SDS011;62136;-35.664;-63.766;2022-10-23T06:08:18;2.92;;;1.17;;
59974;SDS011;62136;-35.664;-63.766;2022-10-23T06:10:46;2.05;;;1.10;;
59974;SDS011;62136;-35.664;-63.766;2022-10-23T06:13:13;2.60;;;0.90;;
59974;SDS011;62136;-35.664;-63.766;2022-10-23T06:15:40;1.88;;;0.80;;
59974;SDS011;62136;-35.664;-63.766;2022-10-23T06:18:07;1.50;;;0.80;;
59974;SDS011;62136;-35.664;-63.766;2022-10-23T06:20:34;2.35;;;0.90;;
59974;SDS011;62136;-35.664;-63.766;2022-10-23T06:23:03;2.13;;;0.80;;
59974;SDS011;62136;-35.664;-63.766;2022-10-23T06:25:30;2.15;;;0.80;;
59974;SDS011;62136;-35.664;-63.766;2022-10-23T06:28:03;1.77;;;1.13;;
59974;SDS011;62136;-35.664;-63.766;2022-10-23T06:30:30;2.88;;;0.90;;
59974;SDS011;62136;-35.664;-63.766;2022-10-23T06:32:57;3.40;;;1.02;;
59974;SDS011;62136;-35.664;-63.766;2022-10-23T06:35:24;1.90;;;0.70;;
59974;SDS011;62136;-35.664;-63.766;2022-10-23T06:37:51;1.42;;;0.68;;
59974;SDS011;62136;-35.664;-63.766;2022-10-23T06:40:18;1.98;;;0.80;;
59974;SDS011;62136;-35.664;-63.766;2022-10-23T06:42:45;1.45;;;0.60;;
59974;SDS011;62136;-35.664;-63.766;2022-10-23T06:45:12;1.35;;;0.63;;
59974;SDS011;62136;-35.664;-63.766;2022-10-23T06:47:39;1.17;;;0.60;;
59974;SDS011;62136;-35.664;-63.766;2022-10-23T06:50:06;1.15;;;0.68;;
59974;SDS011;62136;-35.664;-63.766;2022-10-23T06:52:33;2.00;;;0.80;;
59974;SDS011;62136;-35.664;-63.766;2022-10-23T06:55:01;1.85;;;0.80;;
59974;SDS011;62136;-35.664;-63.766;2022-10-23T06:57:28;1.90;;;0.80;;
59974;SDS011;62136;-35.664;-63.766;2022-10-23T06:59:55;1.85;;;0.77;;
59974;SDS011;62136;-35.664;-63.766;2022-10-23T07:02:22;2.35;;;0.60;;
59974;SDS011;62136;-35.664;-63.766;2022-10-23T07:04:49;1.65;;;0.57;;
59974;SDS011;62136;-35.664;-63.766;2022-10-23T07:07:16;2.05;;;0.60;;
59974;SDS011;62136;-35.664;-63.766;2022-10-23T07:09:43;2.60;;;0.88;;
59974;SDS011;62136;-35.664;-63.766;2022-10-23T07:12:10;2.20;;;0.73;;
59974;SDS011;62136;-35.664;-63.766;2022-10-23T07:14:43;1.92;;;1.00;;
59974;SDS011;62136;-35.664;-63.766;2022-10-23T07:17:10;1.63;;;0.60;;
59974;SDS011;62136;-35.664;-63.766;2022-10-23T07:19:37;2.95;;;0.90;;
59974;SDS011;62136;-35.664;-63.766;2022-10-23T07:22:05;1.50;;;0.82;;
59974;SDS011;62136;-35.664;-63.766;2022-10-23T07:24:32;1.52;;;0.70;;
59974;SDS011;62136;-35.664;-63.766;2022-10-23T07:27:02;0.95;;;0.70;;
59974;SDS011;62136;-35.664;-63.766;2022-10-23T07:29:29;1.35;;;0.60;;
59974;SDS011;62136;-35.664;-63.766;2022-10-23T07:31:57;2.50;;;0.73;;
59974;SDS011;62136;-35.664;-63.766;2022-10-23T07:34:29;2.50;;;0.68;;
59974;SDS011;62136;-35.664;-63.766;2022-10-23T07:36:56;1.67;;;0.60;;
59974;SDS011;62136;-35.664;-63.766;2022-10-23T07:39:23;2.22;;;0.85;;
59974;SDS011;62136;-35.664;-63.766;2022-10-23T07:41:50;2.50;;;0.60;;
59974;SDS011;62136;-35.664;-63.766;2022-10-23T07:44:17;1.85;;;0.95;;
59974;SDS011;62136;-35.664;-63.766;2022-10-23T07:46:44;2.38;;;0.70;;
59974;SDS011;62136;-35.664;-63.766;2022-10-23T07:49:11;1.40;;;0.80;;
59974;SDS011;62136;-35.664;-63.766;2022-10-23T07:51:38;2.15;;;0.75;;
59974;SDS011;62136;-35.664;-63.766;2022-10-23T07:54:06;1.73;;;0.70;;
59974;SDS011;62136;-35.664;-63.766;2022-10-23T07:56:36;1.42;;;0.70;;
59974;SDS011;62136;-35.664;-63.766;2022-10-23T07:59:03;0.70;;;0.50;;
59974;SDS011;62136;-35.664;-63.766;2022-10-23T08:01:35;1.55;;;0.60;;
59974;SDS011;62136;-35.664;-63.766;2022-10-23T08:04:03;1.67;;;0.80;;
59974;SDS011;62136;-35.664;-63.766;2022-10-23T08:06:30;1.88;;;0.65;;
59974;SDS011;62136;-35.664;-63.766;2022-10-23T08:08:57;2.70;;;0.80;;
59974;SDS011;62136;-35.664;-63.766;2022-10-23T08:11:24;1.88;;;0.68;;
59974;SDS011;62136;-35.664;-63.766;2022-10-23T08:13:56;1.95;;;0.60;;
59974;SDS011;62136;-35.664;-63.766;2022-10-23T08:16:24;1.15;;;0.60;;
59974;SDS011;62136;-35.664;-63.766;2022-10-23T08:18:51;2.38;;;0.60;;
59974;SDS011;62136;-35.664;-63.766;2022-10-23T08:21:18;2.35;;;0.80;;
59974;SDS011;62136;-35.664;-63.766;2022-10-23T08:23:48;2.95;;;0.88;;
59974;SDS011;62136;-35.664;-63.766;2022-10-23T08:26:19;2.15;;;0.50;;
59974;SDS011;62136;-35.664;-63.766;2022-10-23T08:28:47;1.65;;;0.60;;
59974;SDS011;62136;-35.664;-63.766;2022-10-23T08:31:14;1.30;;;0.85;;
59974;SDS011;62136;-35.664;-63.766;2022-10-23T08:33:43;1.02;;;0.60;;
59974;SDS011;62136;-35.664;-63.766;2022-10-23T08:36:15;1.55;;;0.60;;
59974;SDS011;62136;-35.664;-63.766;2022-10-23T08:38:47;1.70;;;0.60;;
59974;SDS011;62136;-35.664;-63.766;2022-10-23T08:46:36;1.30;;;0.65;;
59974;SDS011;62136;-35.664;-63.766;2022-10-23T08:49:25;1.63;;;0.73;;
59974;SDS011;62136;-35.664;-63.766;2022-10-23T08:52:11;1.27;;;0.50;;
59974;SDS011;62136;-35.664;-63.766;2022-10-23T08:57:18;2.45;;;0.82;;
59974;SDS011;62136;-35.664;-63.766;2022-10-23T08:59:57;1.30;;;0.60;;
59974;SDS011;62136;-35.664;-63.766;2022-10-23T09:02:37;3.38;;;0.70;;
59974;SDS011;62136;-35.664;-63.766;2022-10-23T09:11:06;1.13;;;0.70;;
59974;SDS011;62136;-35.664;-63.766;2022-10-23T09:13:46;2.13;;;0.73;;
59974;SDS011;62136;-35.664;-63.766;2022-10-23T09:16:42;1.10;;;0.60;;
59974;SDS011;62136;-35.664;-63.766;2022-10-23T09:19:21;0.88;;;0.55;;
59974;SDS011;62136;-35.664;-63.766;2022-10-23T09:24:21;1.15;;;0.60;;
59974;SDS011;62136;-35.664;-63.766;2022-10-23T09:26:50;1.15;;;0.68;;
59974;SDS011;62136;-35.664;-63.766;2022-10-23T09:31:51;1.08;;;0.52;;
59974;SDS011;62136;-35.664;-63.766;2022-10-23T09:34:21;3.67;;;0.95;;
59974;SDS011;62136;-35.664;-63.766;2022-10-23T09:36:51;1.65;;;0.80;;
59974;SDS011;62136;-35.664;-63.766;2022-10-23T09:39:30;2.42;;;0.70;;
59974;SDS011;62136;-35.664;-63.766;2022-10-23T09:42:12;0.82;;;0.55;;
59974;SDS011;62136;-35.664;-63.766;2022-10-23T09:44:51;2.80;;;0.70;;
59974;SDS011;62136;-35.664;-63.766;2022-10-23T09:47:20;1.95;;;0.68;;
59974;SDS011;62136;-35.664;-63.766;2022-10-23T09:49:50;2.42;;;0.73;;
59974;SDS011;62136;-35.664;-63.766;2022-10-23T09:52:27;2.05;;;0.70;;
59974;SDS011;62136;-35.664;-63.766;2022-10-23T09:55:18;1.73;;;0.52;;
59974;SDS011;62136;-35.664;-63.766;2022-10-23T09:57:48;2.00;;;0.70;;
59974;SDS011;62136;-35.664;-63.766;2022-10-23T10:00:17;1.35;;;0.65;;
59974;SDS011;62136;-35.664;-63.766;2022-10-23T10:03:02;1.05;;;0.60;;
59974;SDS011;62136;-35.664;-63.766;2022-10-23T10:05:32;1.02;;;0.52;;
59974;SDS011;62136;-35.664;-63.766;2022-10-23T10:08:45;2.13;;;0.55;;
59974;SDS011;62136;-35.664;-63.766;2022-10-23T10:16:25;2.17;;;0.75;;
59974;SDS011;62136;-35.664;-63.766;2022-10-23T10:24:45;0.82;;;0.80;;
59974;SDS011;62136;-35.664;-63.766;2022-10-23T10:27:43;1.70;;;0.65;;
59974;SDS011;62136;-35.664;-63.766;2022-10-23T10:30:18;1.70;;;0.80;;
59974;SDS011;62136;-35.664;-63.766;2022-10-23T10:32:56;1.52;;;0.60;;
59974;SDS011;62136;-35.664;-63.766;2022-10-23T10:39:09;1.95;;;0.60;;
59974;SDS011;62136;-35.664;-63.766;2022-10-23T10:43:52;1.27;;;0.60;;
59974;SDS011;62136;-35.664;-63.766;2022-10-23T10:46:45;1.10;;;0.50;;
59974;SDS011;62136;-35.664;-63.766;2022-10-23T10:52:01;2.10;;;0.70;;
59974;SDS011;62136;-35.664;-63.766;2022-10-23T10:57:35;1.33;;;0.70;;
59974;SDS011;62136;-35.664;-63.766;2022-10-23T11:00:13;1.13;;;0.60;;
59974;SDS011;62136;-35.664;-63.766;2022-10-23T11:02:44;1.73;;;0.75;;
59974;SDS011;62136;-35.664;-63.766;2022-10-23T11:10:32;1.50;;;0.70;;
59974;SDS011;62136;-35.664;-63.766;2022-10-23T11:13:01;2.67;;;0.70;;
59974;SDS011;62136;-35.664;-63.766;2022-10-23T11:15:37;1.27;;;0.57;;
59974;SDS011;62136;-35.664;-63.766;2022-10-23T11:18:11;1.38;;;0.40;;
59974;SDS011;62136;-35.664;-63.766;2022-10-23T11:29:47;1.95;;;0.70;;
59974;SDS011;62136;-35.664;-63.766;2022-10-23T11:35:27;1.00;;;0.40;;
59974;SDS011;62136;-35.664;-63.766;2022-10-23T11:38:35;1.80;;;0.77;;
59974;SDS011;62136;-35.664;-63.766;2022-10-23T11:41:02;1.02;;;0.50;;
59974;SDS011;62136;-35.664;-63.766;2022-10-23T11:43:54;2.53;;;0.68;;
59974;SDS011;62136;-35.664;-63.766;2022-10-23T11:46:34;1.35;;;0.50;;
59974;SDS011;62136;-35.664;-63.766;2022-10-23T11:49:04;1.50;;;0.63;;
59974;SDS011;62136;-35.664;-63.766;2022-10-23T11:51:44;2.08;;;0.70;;
59974;SDS011;62136;-35.664;-63.766;2022-10-23T11:56:53;0.50;;;0.50;;
59974;SDS011;62136;-35.664;-63.766;2022-10-23T12:07:57;0.52;;;0.40;;
59974;SDS011;62136;-35.664;-63.766;2022-10-23T12:10:26;1.48;;;0.57;;
59974;SDS011;62136;-35.664;-63.766;2022-10-23T12:13:00;0.95;;;0.82;;
59974;SDS011;62136;-35.664;-63.766;2022-10-23T12:15:53;1.17;;;0.60;;
59974;SDS011;62136;-35.664;-63.766;2022-10-23T12:18:21;2.20;;;0.73;;
59974;SDS011;62136;-35.664;-63.766;2022-10-23T12:20:52;1.25;;;0.52;;
59974;SDS011;62136;-35.664;-63.766;2022-10-23T12:40:30;0.50;;;0.40;;
59974;SDS011;62136;-35.664;-63.766;2022-10-23T12:42:58;0.47;;;0.40;;
59974;SDS011;62136;-35.664;-63.766;2022-10-23T12:45:27;0.60;;;0.50;;
59974;SDS011;62136;-35.664;-63.766;2022-10-23T12:47:59;0.80;;;0.50;;
59974;SDS011;62136;-35.664;-63.766;2022-10-23T12:50:28;1.83;;;0.60;;
59974;SDS011;62136;-35.664;-63.766;2022-10-23T12:52:59;1.10;;;0.50;;
59974;SDS011;62136;-35.664;-63.766;2022-10-23T12:55:30;1.83;;;0.60;;
59974;SDS011;62136;-35.664;-63.766;2022-10-23T12:58:19;1.23;;;0.50;;
59974;SDS011;62136;-35.664;-63.766;2022-10-23T13:00:59;0.88;;;0.50;;
59974;SDS011;62136;-35.664;-63.766;2022-10-23T13:03:28;1.23;;;0.80;;
59974;SDS011;62136;-35.664;-63.766;2022-10-23T13:05:57;1.83;;;0.50;;
59974;SDS011;62136;-35.664;-63.766;2022-10-23T13:08:40;1.55;;;0.80;;
59974;SDS011;62136;-35.664;-63.766;2022-10-23T13:11:12;1.80;;;0.60;;
59974;SDS011;62136;-35.664;-63.766;2022-10-23T13:13:43;1.48;;;0.50;;
59974;SDS011;62136;-35.664;-63.766;2022-10-23T13:16:16;1.58;;;0.50;;
59974;SDS011;62136;-35.664;-63.766;2022-10-23T13:18:47;0.63;;;0.47;;
59974;SDS011;62136;-35.664;-63.766;2022-10-23T13:21:22;0.88;;;0.47;;
59974;SDS011;62136;-35.664;-63.766;2022-10-23T13:23:52;0.85;;;0.52;;
59974;SDS011;62136;-35.664;-63.766;2022-10-23T13:26:39;2.33;;;0.73;;
59974;SDS011;62136;-35.664;-63.766;2022-10-23T13:29:17;1.42;;;0.60;;
59974;SDS011;62136;-35.664;-63.766;2022-10-23T13:32:10;0.40;;;0.40;;
59974;SDS011;62136;-35.664;-63.766;2022-10-23T13:34:50;1.42;;;0.63;;
59974;SDS011;62136;-35.664;-63.766;2022-10-23T13:39:58;1.02;;;0.50;;
59974;SDS011;62136;-35.664;-63.766;2022-10-23T13:42:27;1.00;;;0.45;;
59974;SDS011;62136;-35.664;-63.766;2022-10-23T13:44:54;1.63;;;0.88;;
59974;SDS011;62136;-35.664;-63.766;2022-10-23T13:47:21;1.00;;;0.47;;
59974;SDS011;62136;-35.664;-63.766;2022-10-23T13:49:48;1.38;;;0.60;;
59974;SDS011;62136;-35.664;-63.766;2022-10-23T13:52:16;1.27;;;0.43;;
59974;SDS011;62136;-35.664;-63.766;2022-10-23T13:54:46;1.63;;;0.50;;
59974;SDS011;62136;-35.664;-63.766;2022-10-23T13:57:14;0.68;;;0.40;;
59974;SDS011;62136;-35.664;-63.766;2022-10-23T13:59:41;1.30;;;0.50;;
59974;SDS011;62136;-35.664;-63.766;2022-10-23T14:02:19;1.85;;;0.73;;
59974;SDS011;62136;-35.664;-63.766;2022-10-23T14:04:49;0.98;;;0.80;;
59974;SDS011;62136;-35.664;-63.766;2022-10-23T14:07:16;1.48;;;0.50;;
59974;SDS011;62136;-35.664;-63.766;2022-10-23T14:09:43;1.80;;;0.60;;
59974;SDS011;62136;-35.664;-63.766;2022-10-23T14:12:10;1.73;;;0.60;;
59974;SDS011;62136;-35.664;-63.766;2022-10-23T14:14:38;0.95;;;0.60;;
59974;SDS011;62136;-35.664;-63.766;2022-10-23T14:17:05;1.42;;;0.70;;
59974;SDS011;62136;-35.664;-63.766;2022-10-23T14:19:32;1.70;;;0.50;;
59974;SDS011;62136;-35.664;-63.766;2022-10-23T14:21:59;2.38;;;0.63;;
59974;SDS011;62136;-35.664;-63.766;2022-10-23T14:24:26;1.15;;;0.52;;
59974;SDS011;62136;-35.664;-63.766;2022-10-23T14:26:53;1.65;;;0.80;;
59974;SDS011;62136;-35.664;-63.766;2022-10-23T14:29:22;1.92;;;0.70;;
59974;SDS011;62136;-35.664;-63.766;2022-10-23T14:31:49;1.45;;;0.80;;
59974;SDS011;62136;-35.664;-63.766;2022-10-23T14:34:16;2.03;;;0.52;;
59974;SDS011;62136;-35.664;-63.766;2022-10-23T14:36:43;1.95;;;0.60;;
59974;SDS011;62136;-35.664;-63.766;2022-10-23T14:39:10;0.68;;;0.50;;
59974;SDS011;62136;-35.664;-63.766;2022-10-23T14:41:37;1.65;;;0.77;;
59974;SDS011;62136;-35.664;-63.766;2022-10-23T14:44:05;1.88;;;0.60;;
59974;SDS011;62136;-35.664;-63.766;2022-10-23T14:46:32;0.95;;;0.70;;
59974;SDS011;62136;-35.664;-63.766;2022-10-23T14:49:00;0.63;;;0.50;;
59974;SDS011;62136;-35.664;-63.766;2022-10-23T14:51:27;1.85;;;0.60;;
59974;SDS011;62136;-35.664;-63.766;2022-10-23T14:53:56;1.25;;;0.80;;
59974;SDS011;62136;-35.664;-63.766;2022-10-23T14:56:26;1.42;;;0.80;;
59974;SDS011;62136;-35.664;-63.766;2022-10-23T14:58:55;1.38;;;0.70;;
59974;SDS011;62136;-35.664;-63.766;2022-10-23T15:01:33;1.83;;;1.20;;
59974;SDS011;62136;-35.664;-63.766;2022-10-23T15:04:05;1.23;;;1.00;;
59974;SDS011;62136;-35.664;-63.766;2022-10-23T15:06:33;1.33;;;0.70;;
59974;SDS011;62136;-35.664;-63.766;2022-10-23T15:09:00;1.73;;;0.80;;
59974;SDS011;62136;-35.664;-63.766;2022-10-23T15:11:28;1.30;;;0.80;;
59974;SDS011;62136;-35.664;-63.766;2022-10-23T15:13:57;1.08;;;0.80;;
59974;SDS011;62136;-35.664;-63.766;2022-10-23T15:16:25;2.90;;;0.93;;
59974;SDS011;62136;-35.664;-63.766;2022-10-23T15:18:52;1.20;;;0.80;;
59974;SDS011;62136;-35.664;-63.766;2022-10-23T15:21:19;1.60;;;0.80;;
59974;SDS011;62136;-35.664;-63.766;2022-10-23T15:23:46;1.73;;;0.85;;
59974;SDS011;62136;-35.664;-63.766;2022-10-23T15:26:15;1.98;;;0.63;;
59974;SDS011;62136;-35.664;-63.766;2022-10-23T15:28:54;1.33;;;0.70;;
59974;SDS011;62136;-35.664;-63.766;2022-10-23T15:34:03;1.80;;;1.20;;
59974;SDS011;62136;-35.664;-63.766;2022-10-23T15:36:30;2.35;;;0.88;;
59974;SDS011;62136;-35.664;-63.766;2022-10-23T15:38:58;1.98;;;0.82;;
59974;SDS011;62136;-35.664;-63.766;2022-10-23T15:41:32;2.65;;;1.10;;
59974;SDS011;62136;-35.664;-63.766;2022-10-23T15:44:00;2.53;;;0.85;;
59974;SDS011;62136;-35.664;-63.766;2022-10-23T15:46:28;1.42;;;0.70;;
59974;SDS011;62136;-35.664;-63.766;2022-10-23T15:48:56;0.95;;;0.82;;
59974;SDS011;62136;-35.664;-63.766;2022-10-23T15:51:23;3.03;;;1.08;;
59974;SDS011;62136;-35.664;-63.766;2022-10-23T15:53:50;1.83;;;1.02;;
59974;SDS011;62136;-35.664;-63.766;2022-10-23T15:56:17;2.42;;;0.88;;
59974;SDS011;62136;-35.664;-63.766;2022-10-23T15:58:44;1.60;;;1.00;;
59974;SDS011;62136;-35.664;-63.766;2022-10-23T16:01:11;2.08;;;1.33;;
59974;SDS011;62136;-35.664;-63.766;2022-10-23T16:03:39;2.17;;;1.13;;
59974;SDS011;62136;-35.664;-63.766;2022-10-23T16:06:07;2.28;;;0.98;;
59974;SDS011;62136;-35.664;-63.766;2022-10-23T16:08:36;2.80;;;1.02;;
59974;SDS011;62136;-35.664;-63.766;2022-10-23T16:11:03;2.78;;;1.00;;
59974;SDS011;62136;-35.664;-63.766;2022-10-23T16:13:37;2.38;;;1.10;;
59974;SDS011;62136;-35.664;-63.766;2022-10-23T16:16:04;2.33;;;1.00;;
59974;SDS011;62136;-35.664;-63.766;2022-10-23T16:18:32;2.08;;;1.17;;
59974;SDS011;62136;-35.664;-63.766;2022-10-23T16:20:59;1.17;;;1.00;;
59974;SDS011;62136;-35.664;-63.766;2022-10-23T16:23:26;2.28;;;1.33;;
59974;SDS011;62136;-35.664;-63.766;2022-10-23T16:25:53;2.65;;;1.33;;
59974;SDS011;62136;-35.664;-63.766;2022-10-23T16:28:20;1.67;;;1.50;;
59974;SDS011;62136;-35.664;-63.766;2022-10-23T16:30:47;2.05;;;1.33;;
59974;SDS011;62136;-35.664;-63.766;2022-10-23T16:33:14;1.45;;;1.10;;
59974;SDS011;62136;-35.664;-63.766;2022-10-23T16:35:41;2.97;;;1.30;;